DLH030 LSGG-LDRI
Flight info
| Callsign | DLH030 |
|---|---|
| Flight time | 1h 3m |
| Altitude | 19000 |
| Route | LSGG/22 ROCA1A ROCCA T345 LURAG T293 LURUT M859 BOA Y504 NIMUM Z43 OTGIG Z71 BASOG M167 ROTAR ROTA1W LDRI/I14Y |
| Aircraft | B736/M-SDE2E3FGHIRWXY/LB1 |
Departure
| Time | 2026-04-18 10:00 |
|---|---|
| Airport | Geneva International Airport (LSGG) |
Arrival
| Time | 2026-04-18 11:03 |
|---|---|
| Airport | Rijeka Airport (LDRI) |
| Time | Latitude | Longitude | Altitude | Speed | Heading |
|---|---|---|---|---|---|
| 2026-04-18 09:26 | 46.23130 | 6.10701 | 1389 ft | 0 kts | 137° |
| 2026-04-18 09:43 | 46.23133 | 6.10698 | 1389 ft | 2 kts | 137° |
| 2026-04-18 09:44 | 46.23134 | 6.10697 | 1389 ft | 0 kts | 137° |
| 2026-04-18 09:53 | 46.23141 | 6.10687 | 1384 ft | 2 kts | 137° |
| 2026-04-18 09:53 | 46.23152 | 6.10669 | 1383 ft | 2 kts | 109° |
| 2026-04-18 09:53 | 46.23154 | 6.10646 | 1383 ft | 2 kts | 77° |
| 2026-04-18 09:54 | 46.23151 | 6.10633 | 1385 ft | 0 kts | 58° |
| 2026-04-18 09:54 | 46.23163 | 6.10653 | 1386 ft | 6 kts | 47° |
| 2026-04-18 09:55 | 46.23209 | 6.10720 | 1385 ft | 13 kts | 45° |
| 2026-04-18 09:55 | 46.23296 | 6.10792 | 1383 ft | 17 kts | 12° |
| 2026-04-18 09:55 | 46.23397 | 6.10729 | 1382 ft | 17 kts | 310° |
| 2026-04-18 09:55 | 46.23493 | 6.10766 | 1378 ft | 17 kts | 45° |
| 2026-04-18 09:56 | 46.23574 | 6.10886 | 1376 ft | 17 kts | 45° |
| 2026-04-18 09:56 | 46.23662 | 6.11015 | 1375 ft | 19 kts | 45° |
| 2026-04-18 09:56 | 46.23753 | 6.11147 | 1378 ft | 19 kts | 45° |
| 2026-04-18 09:56 | 46.23847 | 6.11286 | 1375 ft | 20 kts | 48° |
| 2026-04-18 09:57 | 46.23945 | 6.11428 | 1372 ft | 21 kts | 46° |
| 2026-04-18 09:57 | 46.24055 | 6.11592 | 1371 ft | 24 kts | 45° |
| 2026-04-18 09:57 | 46.24177 | 6.11772 | 1366 ft | 26 kts | 45° |
| 2026-04-18 09:57 | 46.24305 | 6.11954 | 1365 ft | 25 kts | 44° |
| 2026-04-18 09:58 | 46.24425 | 6.12135 | 1368 ft | 24 kts | 48° |
| 2026-04-18 09:58 | 46.24543 | 6.12309 | 1365 ft | 24 kts | 45° |
| 2026-04-18 09:58 | 46.24662 | 6.12483 | 1360 ft | 25 kts | 45° |
| 2026-04-18 09:58 | 46.24785 | 6.12656 | 1357 ft | 24 kts | 34° |
| 2026-04-18 09:59 | 46.24901 | 6.12714 | 1354 ft | 14 kts | 16° |
| 2026-04-18 09:59 | 46.24984 | 6.12710 | 1358 ft | 12 kts | 314° |
| 2026-04-18 09:59 | 46.24969 | 6.12601 | 1356 ft | 13 kts | 227° |
| 2026-04-18 10:00 | 46.24097 | 6.11315 | 1437 ft | 179 kts | 226° |
| 2026-04-18 10:00 | 46.23096 | 6.09877 | 2239 ft | 217 kts | 225° |
| 2026-04-18 10:00 | 46.21971 | 6.08227 | 3326 ft | 246 kts | 226° |
| 2026-04-18 10:00 | 46.20696 | 6.06324 | 4368 ft | 282 kts | 226° |
| 2026-04-18 10:01 | 46.19238 | 6.04175 | 5422 ft | 314 kts | 226° |
| 2026-04-18 10:01 | 46.17682 | 6.01902 | 6441 ft | 323 kts | 225° |
| 2026-04-18 10:01 | 46.16084 | 5.99576 | 7434 ft | 329 kts | 226° |
| 2026-04-18 10:01 | 46.14214 | 5.97686 | 8376 ft | 333 kts | 201° |
| 2026-04-18 10:02 | 46.11931 | 5.97263 | 9421 ft | 334 kts | 175° |
| 2026-04-18 10:02 | 46.09664 | 5.98133 | 10238 ft | 345 kts | 155° |
| 2026-04-18 10:02 | 46.07691 | 6.00154 | 10981 ft | 354 kts | 134° |
| 2026-04-18 10:02 | 46.06303 | 6.03102 | 11702 ft | 361 kts | 113° |
| 2026-04-18 10:03 | 46.05680 | 6.06612 | 12480 ft | 366 kts | 94° |
| 2026-04-18 10:03 | 46.05718 | 6.10298 | 13279 ft | 371 kts | 85° |
| 2026-04-18 10:03 | 46.05754 | 6.13990 | 14036 ft | 378 kts | 97° |
| 2026-04-18 10:03 | 46.04905 | 6.17631 | 14755 ft | 383 kts | 120° |
| 2026-04-18 10:04 | 46.03251 | 6.20644 | 15460 ft | 387 kts | 133° |
| 2026-04-18 10:04 | 46.01394 | 6.23469 | 15944 ft | 400 kts | 134° |
| 2026-04-18 10:04 | 45.99420 | 6.26406 | 16455 ft | 410 kts | 134° |
| 2026-04-18 10:04 | 45.97426 | 6.29416 | 16973 ft | 420 kts | 134° |
| 2026-04-18 10:05 | 45.95438 | 6.32467 | 17481 ft | 427 kts | 133° |
| 2026-04-18 10:05 | 45.93403 | 6.35610 | 18030 ft | 432 kts | 133° |
| 2026-04-18 10:05 | 45.91347 | 6.38782 | 18554 ft | 436 kts | 133° |
| 2026-04-18 10:05 | 45.89269 | 6.41978 | 18996 ft | 438 kts | 133° |
| 2026-04-18 10:06 | 45.87186 | 6.45180 | 19480 ft | 439 kts | 133° |
| 2026-04-18 10:06 | 45.85124 | 6.48345 | 19948 ft | 441 kts | 133° |
| 2026-04-18 10:06 | 45.82994 | 6.51612 | 20419 ft | 442 kts | 133° |
| 2026-04-18 10:06 | 45.80878 | 6.54851 | 20924 ft | 447 kts | 133° |
| 2026-04-18 10:07 | 45.78743 | 6.58117 | 21426 ft | 452 kts | 133° |
| 2026-04-18 10:07 | 45.76580 | 6.61423 | 21925 ft | 456 kts | 133° |
| 2026-04-18 10:07 | 45.74402 | 6.64765 | 22477 ft | 459 kts | 132° |
| 2026-04-18 10:07 | 45.72417 | 6.68308 | 23004 ft | 463 kts | 126° |
| 2026-04-18 10:08 | 45.70554 | 6.72153 | 23569 ft | 466 kts | 123° |
| 2026-04-18 10:08 | 45.68785 | 6.75980 | 24051 ft | 469 kts | 123° |
| 2026-04-18 10:08 | 45.66976 | 6.79870 | 24526 ft | 472 kts | 123° |
| 2026-04-18 10:08 | 45.65115 | 6.83783 | 25004 ft | 475 kts | 124° |
| 2026-04-18 10:09 | 45.63225 | 6.87674 | 25468 ft | 477 kts | 124° |
| 2026-04-18 10:09 | 45.61318 | 6.91553 | 25951 ft | 478 kts | 125° |
| 2026-04-18 10:09 | 45.59397 | 6.95447 | 26461 ft | 479 kts | 125° |
| 2026-04-18 10:09 | 45.57479 | 6.99335 | 26964 ft | 480 kts | 125° |
| 2026-04-18 10:10 | 45.55560 | 7.03245 | 27463 ft | 480 kts | 124° |
| 2026-04-18 10:10 | 45.53677 | 7.07165 | 27987 ft | 479 kts | 122° |
| 2026-04-18 10:10 | 45.52091 | 7.11345 | 28194 ft | 479 kts | 112° |
| 2026-04-18 10:11 | 45.49861 | 7.20273 | 28210 ft | 476 kts | 108° |
| 2026-04-18 10:11 | 45.47743 | 7.29211 | 28204 ft | 476 kts | 108° |
| 2026-04-18 10:12 | 45.45594 | 7.38063 | 28186 ft | 476 kts | 108° |
| 2026-04-18 10:12 | 45.43549 | 7.47031 | 28162 ft | 476 kts | 109° |
| 2026-04-18 10:13 | 45.41271 | 7.55883 | 28177 ft | 476 kts | 110° |
| 2026-04-18 10:13 | 45.38966 | 7.64727 | 28172 ft | 476 kts | 109° |
| 2026-04-18 10:14 | 45.36704 | 7.73579 | 28170 ft | 477 kts | 109° |
| 2026-04-18 10:14 | 45.34456 | 7.82464 | 28168 ft | 477 kts | 109° |
| 2026-04-18 10:15 | 45.32213 | 7.91324 | 28152 ft | 476 kts | 109° |
| 2026-04-18 10:15 | 45.29975 | 8.00119 | 28163 ft | 476 kts | 109° |
| 2026-04-18 10:16 | 45.27715 | 8.08965 | 28156 ft | 476 kts | 109° |
| 2026-04-18 10:16 | 45.25451 | 8.17787 | 28165 ft | 475 kts | 109° |
| 2026-04-18 10:17 | 45.23183 | 8.26593 | 28145 ft | 475 kts | 109° |
| 2026-04-18 10:17 | 45.20909 | 8.35388 | 28155 ft | 474 kts | 109° |
| 2026-04-18 10:18 | 45.18633 | 8.44159 | 28161 ft | 474 kts | 109° |
| 2026-04-18 10:18 | 45.16352 | 8.52914 | 28174 ft | 473 kts | 109° |
| 2026-04-18 10:19 | 45.14080 | 8.61607 | 28182 ft | 473 kts | 109° |
| 2026-04-18 10:19 | 45.11789 | 8.70335 | 28190 ft | 472 kts | 109° |
| 2026-04-18 10:20 | 45.09494 | 8.79050 | 28181 ft | 472 kts | 109° |
| 2026-04-18 10:20 | 45.07192 | 8.87757 | 28201 ft | 472 kts | 110° |
| 2026-04-18 10:21 | 45.04887 | 8.96443 | 28191 ft | 471 kts | 110° |
| 2026-04-18 10:21 | 45.02578 | 9.05113 | 28187 ft | 471 kts | 110° |
| 2026-04-18 10:22 | 45.00264 | 9.13772 | 28176 ft | 471 kts | 109° |
| 2026-04-18 10:22 | 44.97942 | 9.22430 | 28158 ft | 471 kts | 109° |
| 2026-04-18 10:23 | 44.95614 | 9.31077 | 28145 ft | 470 kts | 110° |
| 2026-04-18 10:23 | 44.93286 | 9.39692 | 28129 ft | 470 kts | 110° |
| 2026-04-18 10:24 | 44.90963 | 9.48260 | 28132 ft | 470 kts | 110° |
| 2026-04-18 10:24 | 44.88624 | 9.56855 | 28142 ft | 469 kts | 110° |
| 2026-04-18 10:25 | 44.86279 | 9.65443 | 28140 ft | 469 kts | 110° |
| 2026-04-18 10:25 | 44.83928 | 9.74021 | 28134 ft | 469 kts | 110° |
| 2026-04-18 10:26 | 44.81571 | 9.82589 | 28144 ft | 469 kts | 110° |
| 2026-04-18 10:26 | 44.79206 | 9.91160 | 28150 ft | 469 kts | 110° |
| 2026-04-18 10:27 | 44.76832 | 9.99733 | 28168 ft | 470 kts | 110° |
| 2026-04-18 10:27 | 44.74454 | 10.08292 | 28172 ft | 470 kts | 110° |
| 2026-04-18 10:28 | 44.72067 | 10.16853 | 28169 ft | 470 kts | 110° |
| 2026-04-18 10:28 | 44.69815 | 10.25461 | 28168 ft | 469 kts | 107° |
| 2026-04-18 10:29 | 44.67789 | 10.34175 | 28215 ft | 468 kts | 107° |
| 2026-04-18 10:29 | 44.65779 | 10.42822 | 28213 ft | 468 kts | 107° |
| 2026-04-18 10:30 | 44.63720 | 10.51495 | 28237 ft | 468 kts | 107° |
| 2026-04-18 10:30 | 44.61639 | 10.60165 | 28232 ft | 468 kts | 107° |
| 2026-04-18 10:31 | 44.59554 | 10.68821 | 28245 ft | 468 kts | 107° |
| 2026-04-18 10:31 | 44.57462 | 10.77478 | 28244 ft | 469 kts | 107° |
| 2026-04-18 10:32 | 44.55362 | 10.86141 | 28255 ft | 468 kts | 107° |
| 2026-04-18 10:32 | 44.53290 | 10.94786 | 28258 ft | 467 kts | 104° |
| 2026-04-18 10:33 | 44.52480 | 11.03746 | 28256 ft | 463 kts | 86° |
| 2026-04-18 10:33 | 44.52941 | 11.12682 | 28246 ft | 463 kts | 83° |
| 2026-04-18 10:34 | 44.53396 | 11.21741 | 28245 ft | 463 kts | 85° |
| 2026-04-18 10:34 | 44.54532 | 11.30487 | 28164 ft | 459 kts | 69° |
| 2026-04-18 10:35 | 44.57413 | 11.38398 | 28167 ft | 456 kts | 57° |
| 2026-04-18 10:35 | 44.60645 | 11.46058 | 28172 ft | 456 kts | 58° |
| 2026-04-18 10:36 | 44.63804 | 11.53783 | 28193 ft | 456 kts | 58° |
| 2026-04-18 10:36 | 44.66951 | 11.61520 | 28201 ft | 456 kts | 58° |
| 2026-04-18 10:37 | 44.69571 | 11.67968 | 28207 ft | 456 kts | 58° |
| 2026-04-18 10:37 | 44.72715 | 11.75717 | 28200 ft | 456 kts | 58° |
| 2026-04-18 10:38 | 44.75862 | 11.83474 | 28207 ft | 455 kts | 57° |
| 2026-04-18 10:38 | 44.79887 | 11.90233 | 28208 ft | 449 kts | 39° |
| 2026-04-18 10:39 | 44.84997 | 11.95237 | 28180 ft | 447 kts | 31° |
| 2026-04-18 10:39 | 44.90190 | 12.00061 | 28178 ft | 447 kts | 32° |
| 2026-04-18 10:40 | 44.95114 | 12.05442 | 28192 ft | 449 kts | 40° |
| 2026-04-18 10:40 | 44.99545 | 12.11658 | 28174 ft | 452 kts | 49° |
| 2026-04-18 10:41 | 45.02796 | 12.19290 | 28174 ft | 455 kts | 61° |
| 2026-04-18 10:41 | 45.05557 | 12.27301 | 28163 ft | 456 kts | 62° |
| 2026-04-18 10:42 | 45.08368 | 12.35341 | 28164 ft | 456 kts | 61° |
| 2026-04-18 10:42 | 45.11206 | 12.43360 | 28169 ft | 455 kts | 60° |
| 2026-04-18 10:43 | 45.13961 | 12.51449 | 28155 ft | 456 kts | 65° |
| 2026-04-18 10:43 | 45.16149 | 12.59891 | 28163 ft | 457 kts | 68° |
| 2026-04-18 10:44 | 45.18245 | 12.68404 | 28157 ft | 457 kts | 68° |
| 2026-04-18 10:44 | 45.20390 | 12.76871 | 28159 ft | 456 kts | 67° |
| 2026-04-18 10:45 | 45.22556 | 12.85335 | 28166 ft | 456 kts | 67° |
| 2026-04-18 10:45 | 45.24719 | 12.93795 | 28163 ft | 456 kts | 66° |
| 2026-04-18 10:46 | 45.26704 | 13.02350 | 28150 ft | 459 kts | 76° |
| 2026-04-18 10:46 | 45.27649 | 13.11265 | 28152 ft | 461 kts | 79° |
| 2026-04-18 10:47 | 45.28496 | 13.20125 | 27585 ft | 435 kts | 79° |
| 2026-04-18 10:47 | 45.28906 | 13.24284 | 27064 ft | 416 kts | 78° |
| 2026-04-18 10:47 | 45.29308 | 13.28267 | 26549 ft | 400 kts | 78° |
| 2026-04-18 10:47 | 45.29702 | 13.32111 | 26043 ft | 386 kts | 78° |
| 2026-04-18 10:48 | 45.30086 | 13.35831 | 25546 ft | 375 kts | 78° |
| 2026-04-18 10:48 | 45.30457 | 13.39421 | 25109 ft | 359 kts | 78° |
| 2026-04-18 10:48 | 45.30809 | 13.42846 | 24621 ft | 343 kts | 78° |
| 2026-04-18 10:48 | 45.31147 | 13.46136 | 24141 ft | 331 kts | 78° |
| 2026-04-18 10:49 | 45.31476 | 13.49340 | 23664 ft | 324 kts | 78° |
| 2026-04-18 10:49 | 45.31801 | 13.52503 | 22884 ft | 325 kts | 78° |
| 2026-04-18 10:49 | 45.32129 | 13.55695 | 22099 ft | 327 kts | 78° |
| 2026-04-18 10:49 | 45.32455 | 13.58890 | 21325 ft | 326 kts | 78° |
| 2026-04-18 10:50 | 45.32775 | 13.62058 | 20572 ft | 321 kts | 78° |
| 2026-04-18 10:50 | 45.33089 | 13.65174 | 19830 ft | 317 kts | 78° |
| 2026-04-18 10:50 | 45.33395 | 13.68222 | 19129 ft | 313 kts | 78° |
| 2026-04-18 10:50 | 45.33703 | 13.71296 | 18425 ft | 308 kts | 78° |
| 2026-04-18 10:51 | 45.34001 | 13.74287 | 17655 ft | 302 kts | 78° |
| 2026-04-18 10:51 | 45.34289 | 13.77177 | 16880 ft | 297 kts | 78° |
| 2026-04-18 10:51 | 45.34577 | 13.80065 | 16111 ft | 292 kts | 78° |
| 2026-04-18 10:51 | 45.34859 | 13.82902 | 15366 ft | 288 kts | 78° |
| 2026-04-18 10:52 | 45.35136 | 13.85698 | 14638 ft | 283 kts | 78° |
| 2026-04-18 10:52 | 45.35406 | 13.88441 | 13917 ft | 279 kts | 79° |
| 2026-04-18 10:52 | 45.35673 | 13.91150 | 13132 ft | 275 kts | 79° |
| 2026-04-18 10:52 | 45.35936 | 13.93821 | 12368 ft | 271 kts | 79° |
| 2026-04-18 10:53 | 45.36195 | 13.96471 | 11607 ft | 268 kts | 79° |
| 2026-04-18 10:53 | 45.36449 | 13.99083 | 10867 ft | 265 kts | 79° |
| 2026-04-18 10:53 | 45.36664 | 14.01287 | 10252 ft | 263 kts | 79° |
| 2026-04-18 10:53 | 45.36913 | 14.03834 | 9484 ft | 260 kts | 80° |
| 2026-04-18 10:54 | 45.37160 | 14.06365 | 8716 ft | 257 kts | 79° |
| 2026-04-18 10:54 | 45.37405 | 14.08872 | 7970 ft | 255 kts | 79° |
| 2026-04-18 10:54 | 45.37647 | 14.11364 | 7220 ft | 254 kts | 80° |
| 2026-04-18 10:54 | 45.37879 | 14.13789 | 6874 ft | 241 kts | 80° |
| 2026-04-18 10:55 | 45.38099 | 14.16096 | 6572 ft | 228 kts | 79° |
| 2026-04-18 10:55 | 45.38391 | 14.18227 | 6335 ft | 215 kts | 70° |
| 2026-04-18 10:55 | 45.38891 | 14.20211 | 6151 ft | 212 kts | 68° |
| 2026-04-18 10:55 | 45.39410 | 14.22173 | 5995 ft | 210 kts | 68° |
| 2026-04-18 10:56 | 45.39914 | 14.24123 | 5844 ft | 212 kts | 67° |
| 2026-04-18 10:56 | 45.40416 | 14.26087 | 5685 ft | 211 kts | 68° |
| 2026-04-18 10:56 | 45.40909 | 14.28042 | 5534 ft | 206 kts | 68° |
| 2026-04-18 10:56 | 45.41375 | 14.29905 | 5429 ft | 195 kts | 69° |
| 2026-04-18 10:57 | 45.41815 | 14.31678 | 5327 ft | 191 kts | 68° |
| 2026-04-18 10:57 | 45.42153 | 14.33500 | 5211 ft | 188 kts | 87° |
| 2026-04-18 10:57 | 45.41830 | 14.35311 | 5104 ft | 193 kts | 115° |
| 2026-04-18 10:57 | 45.40938 | 14.36723 | 4866 ft | 194 kts | 134° |
| 2026-04-18 10:58 | 45.39943 | 14.38029 | 4589 ft | 198 kts | 136° |
| 2026-04-18 10:58 | 45.38834 | 14.39251 | 4323 ft | 204 kts | 142° |
| 2026-04-18 10:58 | 45.37688 | 14.40426 | 4052 ft | 198 kts | 141° |
| 2026-04-18 10:58 | 45.36582 | 14.41570 | 3832 ft | 196 kts | 140° |
| 2026-04-18 10:59 | 45.35495 | 14.42715 | 3573 ft | 197 kts | 139° |
| 2026-04-18 10:59 | 45.34395 | 14.43853 | 3285 ft | 190 kts | 141° |
| 2026-04-18 10:59 | 45.33377 | 14.44901 | 3061 ft | 173 kts | 141° |
| 2026-04-18 10:59 | 45.32442 | 14.45871 | 2843 ft | 162 kts | 144° |
| 2026-04-18 11:00 | 45.31518 | 14.46830 | 2588 ft | 164 kts | 143° |
| 2026-04-18 11:00 | 45.30614 | 14.47771 | 2384 ft | 159 kts | 143° |
| 2026-04-18 11:00 | 45.29721 | 14.48699 | 2177 ft | 159 kts | 141° |
| 2026-04-18 11:00 | 45.28826 | 14.49631 | 1957 ft | 158 kts | 141° |
| 2026-04-18 11:01 | 45.27948 | 14.50543 | 1754 ft | 155 kts | 141° |
| 2026-04-18 11:01 | 45.27107 | 14.51416 | 1535 ft | 143 kts | 141° |
| 2026-04-18 11:01 | 45.26335 | 14.52217 | 1326 ft | 134 kts | 140° |
| 2026-04-18 11:02 | 45.24836 | 14.53703 | 901 ft | 133 kts | 139° |
| 2026-04-18 11:02 | 45.24091 | 14.54501 | 775 ft | 137 kts | 134° |
| 2026-04-18 11:02 | 45.23329 | 14.55334 | 540 ft | 141 kts | 137° |
| 2026-04-18 11:02 | 45.22547 | 14.56162 | 271 ft | 137 kts | 139° |
| 2026-04-18 11:03 | 45.21873 | 14.56880 | 261 ft | 101 kts | 144° |
| 2026-04-18 11:03 | 45.21625 | 14.57128 | 262 ft | 14 kts | 143° |
| 2026-04-18 11:03 | 45.21622 | 14.57199 | 264 ft | 10 kts | 359° |
| 2026-04-18 11:03 | 45.21684 | 14.57199 | 264 ft | 8 kts | 1° |
| 2026-04-18 11:04 | 45.21740 | 14.57203 | 266 ft | 8 kts | 4° |
| 2026-04-18 11:04 | 45.21794 | 14.57195 | 267 ft | 8 kts | 334° |
| 2026-04-18 11:04 | 45.21809 | 14.57153 | 267 ft | 6 kts | 242° |
| 2026-04-18 11:04 | 45.21790 | 14.57153 | 267 ft | 1 kts | 119° |
| 2026-04-18 11:05 | 45.21790 | 14.57154 | 267 ft | 0 kts | 118° |